createdAt,value
2022-08-25T00:01:34.637Z,101772.91
2022-08-25T00:04:05.070Z,101786.84
2022-08-25T00:06:32.289Z,101773.94
2022-08-25T00:08:59.993Z,101769.56
2022-08-25T00:11:29.555Z,101767.09
2022-08-25T00:14:01.025Z,101769.78
2022-08-25T00:16:31.240Z,101771.53
2022-08-25T00:19:01.387Z,101766.34
2022-08-25T00:21:28.616Z,101778.56
2022-08-25T00:23:55.096Z,101761.38
2022-08-25T00:26:21.966Z,101776.19
2022-08-25T00:28:48.474Z,101759.78
2022-08-25T00:31:18.509Z,101771.97
2022-08-25T00:33:46.270Z,101761.53
2022-08-25T00:36:12.818Z,101764.09
2022-08-25T00:38:40.860Z,101767.63
2022-08-25T00:41:11.161Z,101771.88
2022-08-25T00:43:46.481Z,101771.88
2022-08-25T00:46:16.143Z,101764.91
2022-08-25T00:48:44.046Z,101768.31
2022-08-25T00:51:16.869Z,101753.66
2022-08-25T00:53:43.976Z,101752.75
2022-08-25T00:56:12.671Z,101766.72
2022-08-25T00:58:40.264Z,101754.63
2022-08-25T01:01:06.906Z,101754.66
2022-08-25T01:03:35.710Z,101759.09
2022-08-25T01:06:04.429Z,101762.69
2022-08-25T01:08:32.624Z,101752.34
2022-08-25T01:11:06.314Z,101759.34
2022-08-25T01:13:38.014Z,101753.34
2022-08-25T01:16:04.809Z,101745.63
2022-08-25T01:18:47.734Z,101744.75
2022-08-25T01:21:14.463Z,101748.22
2022-08-25T01:23:42.151Z,101746.38
2022-08-25T01:26:19.835Z,101750.72
2022-08-25T01:29:14.413Z,101737.84
2022-08-25T01:31:41.776Z,101742.09
2022-08-25T01:34:12.260Z,101738.50
2022-08-25T01:36:39.589Z,101740.25
2022-08-25T01:39:06.131Z,101739.41
2022-08-25T01:41:54.570Z,101746.44
2022-08-25T01:44:21.278Z,101745.63
2022-08-25T01:46:47.915Z,101738.72
2022-08-25T01:49:14.685Z,101744.81
2022-08-25T01:51:52.394Z,101748.44
2022-08-25T01:54:19.672Z,101739.94
2022-08-25T01:56:46.288Z,101741.75
2022-08-25T01:59:16.962Z,101737.38
2022-08-25T02:01:50.781Z,101736.59
2022-08-25T02:04:17.387Z,101729.69
2022-08-25T02:06:48.380Z,101734.16
2022-08-25T02:09:17.339Z,101726.34
2022-08-25T02:11:46.599Z,101731.41
2022-08-25T02:14:14.131Z,101731.41
2022-08-25T02:16:42.438Z,101726.16
2022-08-25T02:19:12.061Z,101715.75
2022-08-25T02:21:39.494Z,101725.28
2022-08-25T02:24:07.069Z,101726.25
2022-08-25T02:26:33.672Z,101723.81
2022-08-25T02:29:01.273Z,101722.03
2022-08-25T02:31:28.708Z,101726.25
2022-08-25T02:33:57.139Z,101723.69
2022-08-25T02:36:23.876Z,101723.63
2022-08-25T02:38:50.916Z,101723.59
2022-08-25T02:41:21.516Z,101725.34
2022-08-25T02:43:52.124Z,101720.09
2022-08-25T02:46:24.893Z,101715.84
2022-08-25T02:48:53.141Z,101712.31
2022-08-25T02:51:22.000Z,101716.63
2022-08-25T02:53:48.613Z,101705.31
2022-08-25T02:56:17.734Z,101711.47
2022-08-25T02:58:45.874Z,101708.84
2022-08-25T03:01:13.049Z,101700.28
2022-08-25T03:03:41.107Z,101709.88
2022-08-25T03:06:12.737Z,101702.13
2022-08-25T03:08:40.570Z,101694.44
2022-08-25T03:11:07.195Z,101697.91
2022-08-25T03:13:35.266Z,101698.00
2022-08-25T03:16:03.320Z,101692.03
2022-08-25T03:18:31.386Z,101692.91
2022-08-25T03:20:59.082Z,101686.03
2022-08-25T03:23:25.765Z,101687.81
2022-08-25T03:26:13.435Z,101660.03
2022-08-25T03:28:40.104Z,101681.66
2022-08-25T03:31:06.661Z,101675.66
2022-08-25T03:33:33.258Z,101686.88
2022-08-25T03:36:00.845Z,101678.94
2022-08-25T03:38:28.316Z,101679.75
2022-08-25T03:40:54.931Z,101663.38
2022-08-25T03:43:21.647Z,101671.09
2022-08-25T03:45:48.973Z,101668.53
2022-08-25T03:48:16.148Z,101665.06
2022-08-25T03:50:51.992Z,101659.88
2022-08-25T03:53:20.306Z,101655.56
2022-08-25T03:55:47.824Z,101663.41
2022-08-25T03:58:14.982Z,101648.75
2022-08-25T04:00:42.146Z,101651.44
2022-08-25T04:03:08.981Z,101653.28
2022-08-25T04:05:35.548Z,101652.47
2022-08-25T04:08:02.252Z,101662.16
2022-08-25T04:10:29.348Z,101658.75
2022-08-25T04:12:56.156Z,101655.22
2022-08-25T04:15:24.050Z,101651.78
2022-08-25T04:17:55.286Z,101651.75
2022-08-25T04:20:21.799Z,101648.31
2022-08-25T04:22:48.298Z,101645.63
2022-08-25T04:25:14.914Z,101639.50
2022-08-25T04:27:41.594Z,101636.00
2022-08-25T04:30:08.855Z,101634.31
2022-08-25T04:32:36.556Z,101633.38
2022-08-25T04:35:05.365Z,101640.38
2022-08-25T04:37:33.017Z,101615.34
2022-08-25T04:39:59.578Z,101625.75
2022-08-25T04:42:27.060Z,101637.09
2022-08-25T04:44:54.496Z,101630.19
2022-08-25T04:47:21.308Z,101619.91
2022-08-25T04:49:47.874Z,101636.38
2022-08-25T04:52:14.903Z,101641.69
2022-08-25T04:54:42.460Z,101637.38
2022-08-25T04:57:09.525Z,101640.06
2022-08-25T04:59:36.106Z,101632.19
2022-08-25T05:02:05.310Z,101636.50
2022-08-25T05:04:33.991Z,101633.84
2022-08-25T05:07:01.111Z,101639.00
2022-08-25T05:09:28.139Z,101636.28
2022-08-25T05:11:55.213Z,101627.59
2022-08-25T05:14:25.617Z,101641.41
2022-08-25T05:16:54.019Z,101639.66
2022-08-25T05:19:20.562Z,101642.22
2022-08-25T05:21:47.162Z,101634.38
2022-08-25T05:24:13.841Z,101640.31
2022-08-25T05:26:40.556Z,101641.09
2022-08-25T05:29:07.470Z,101640.88
2022-08-25T05:31:38.477Z,101641.53
2022-08-25T05:34:08.495Z,101642.19
2022-08-25T05:36:35.250Z,101636.78
2022-08-25T05:39:02.106Z,101649.47
2022-08-25T05:41:30.657Z,101647.34
2022-08-25T05:43:57.389Z,101645.72
2022-08-25T05:46:24.263Z,101642.00
2022-08-25T05:48:50.984Z,101646.16
2022-08-25T05:51:18.350Z,101653.19
2022-08-25T05:53:47.591Z,101659.25
2022-08-25T05:56:14.575Z,101654.66
2022-08-25T05:58:42.398Z,101659.47
2022-08-25T06:01:28.056Z,101663.19
2022-08-25T06:03:54.780Z,101660.03
2022-08-25T06:06:23.147Z,101660.16
2022-08-25T06:08:50.498Z,101657.66
2022-08-25T06:11:17.522Z,101648.13
2022-08-25T06:13:44.053Z,101650.69
2022-08-25T06:16:10.665Z,101660.16
2022-08-25T06:18:37.280Z,101649.66
2022-08-25T06:21:11.886Z,101654.81
2022-08-25T06:23:39.353Z,101658.19
2022-08-25T06:26:06.505Z,101653.84
2022-08-25T06:28:33.017Z,101655.53
2022-08-25T06:31:01.288Z,101659.00
2022-08-25T06:33:28.002Z,101660.84
2022-08-25T06:35:57.205Z,101659.00
2022-08-25T06:38:24.541Z,101658.00
2022-08-25T06:40:52.427Z,101654.31
2022-08-25T06:43:20.519Z,101655.88
2022-08-25T06:45:47.358Z,101657.41
2022-08-25T06:48:14.521Z,101653.81
2022-08-25T06:50:41.524Z,101654.47
2022-08-25T06:53:08.108Z,101645.81
2022-08-25T06:55:35.433Z,101656.19
2022-08-25T06:58:03.619Z,101650.75
2022-08-25T07:00:32.341Z,101645.94
2022-08-25T07:03:01.083Z,101654.53
2022-08-25T07:05:40.868Z,101662.94
2022-08-25T07:08:11.893Z,101660.78
2022-08-25T07:10:38.908Z,101652.59
2022-08-25T07:13:05.461Z,101651.25
2022-08-25T07:15:31.965Z,101654.06
2022-08-25T07:17:58.715Z,101651.34
2022-08-25T07:22:58.105Z,101647.25
2022-08-25T07:25:24.795Z,101646.53
2022-08-25T07:27:53.802Z,101656.19
2022-08-25T07:30:23.424Z,101653.59
2022-08-25T07:32:52.033Z,101652.44
2022-08-25T07:35:26.117Z,101650.41
2022-08-25T07:37:58.335Z,101651.03
2022-08-25T07:40:27.106Z,101655.75
2022-08-25T07:42:57.402Z,101655.81
2022-08-25T07:45:30.938Z,101647.94
2022-08-25T07:48:06.770Z,101648.91
2022-08-25T07:50:34.885Z,101643.34
2022-08-25T07:53:01.669Z,101645.91
2022-08-25T07:55:30.386Z,101649.03
2022-08-25T07:57:57.436Z,101643.50
2022-08-25T08:00:27.848Z,101642.88
2022-08-25T08:02:54.906Z,101635.03
2022-08-25T08:05:21.508Z,101629.28
2022-08-25T08:07:50.562Z,101641.38
2022-08-25T08:13:05.709Z,101637.81
2022-08-25T08:15:34.525Z,101636.50
2022-08-25T08:18:01.067Z,101632.66
2022-08-25T08:20:32.117Z,101634.84
2022-08-25T08:23:09.560Z,101628.59
2022-08-25T08:25:36.142Z,101617.22
2022-08-25T08:28:03.002Z,101633.03
2022-08-25T08:30:29.893Z,101626.63
2022-08-25T08:33:12.828Z,101629.97
2022-08-25T08:35:43.277Z,101618.34
2022-08-25T08:38:17.407Z,101621.44
2022-08-25T08:41:22.893Z,101621.13
2022-08-25T08:43:59.789Z,101611.38
2022-08-25T08:46:40.797Z,101611.94
2022-08-25T08:49:23.078Z,101607.00
2022-08-25T08:52:00.930Z,101600.00
2022-08-25T08:54:36.359Z,101602.31
2022-08-25T08:57:18.747Z,101606.66
2022-08-25T09:00:00.761Z,101604.34
2022-08-25T09:02:38.601Z,101604.72
2022-08-25T09:05:10.489Z,101605.88
2022-08-25T09:07:44.586Z,101595.44
2022-08-25T09:10:16.332Z,101597.19
2022-08-25T09:12:48.052Z,101600.22
2022-08-25T09:15:54.791Z,101595.38
2022-08-25T09:18:27.580Z,101604.31
2022-08-25T09:21:13.517Z,101597.16
2022-08-25T09:24:03.137Z,101604.28
2022-08-25T09:26:45.084Z,101600.34
2022-08-25T09:29:20.746Z,101599.78
2022-08-25T09:31:48.681Z,101599.22
2022-08-25T09:34:24.755Z,101598.78
2022-08-25T09:36:53.526Z,101602.09
2022-08-25T09:39:20.853Z,101604.41
2022-08-25T09:41:52.220Z,101598.19
2022-08-25T09:44:53.368Z,101588.91
2022-08-25T09:47:27.468Z,101584.97
2022-08-25T09:50:00.659Z,101591.78
2022-08-25T09:52:53.897Z,101591.97
2022-08-25T09:55:29.564Z,101587.78
2022-08-25T09:57:59.218Z,101580.00
2022-08-25T10:00:34.729Z,101571.16
2022-08-25T10:03:07.821Z,101564.75
2022-08-25T10:05:39.411Z,101566.03
2022-08-25T10:08:31.514Z,101558.38
2022-08-25T10:11:00.363Z,101555.16
2022-08-25T10:13:41.329Z,101555.81
2022-08-25T10:16:34.565Z,101547.81
2022-08-25T10:19:29.761Z,101559.22
2022-08-25T10:22:07.944Z,101561.13
2022-08-25T10:24:39.135Z,101560.16
2022-08-25T10:27:19.432Z,101554.09
2022-08-25T10:29:59.591Z,101552.16
2022-08-25T10:32:52.037Z,101543.56
2022-08-25T10:35:28.949Z,101541.25
2022-08-25T10:38:35.286Z,101539.97
2022-08-25T10:41:13.025Z,101532.22
2022-08-25T10:43:42.486Z,101533.06
2022-08-25T10:46:30.210Z,101525.34
2022-08-25T10:49:19.262Z,101530.72
2022-08-25T10:51:57.649Z,101515.72
2022-08-25T10:55:14.124Z,101515.22
2022-08-25T10:57:46.532Z,101514.97
2022-08-25T11:00:22.334Z,101503.34
2022-08-25T11:03:15.687Z,101502.06
2022-08-25T11:05:50.240Z,101502.25
2022-08-25T11:08:22.712Z,101499.78
2022-08-25T11:11:26.449Z,101486.34
2022-08-25T11:14:27.042Z,101496.06
2022-08-25T11:17:06.366Z,101487.34
2022-08-25T11:19:38.381Z,101484.06
2022-08-25T11:22:32.767Z,101476.84
2022-08-25T11:25:18.407Z,101482.22
2022-08-25T11:27:48.043Z,101485.69
2022-08-25T11:30:17.508Z,101465.69
2022-08-25T11:32:49.660Z,101477.22
2022-08-25T11:35:27.332Z,101473.06
2022-08-25T11:38:00.214Z,101477.09
2022-08-25T11:40:52.767Z,101470.09
2022-08-25T11:43:56.363Z,101466.94
2022-08-25T11:46:49.531Z,101464.13
2022-08-25T11:49:25.037Z,101459.44
2022-08-25T11:51:52.935Z,101458.94
2022-08-25T11:54:28.824Z,101447.34
2022-08-25T11:57:22.101Z,101460.13
2022-08-25T11:59:55.801Z,101459.50
2022-08-25T12:02:47.523Z,101454.16
2022-08-25T12:05:16.972Z,101452.09
2022-08-25T12:08:11.405Z,101462.53
2022-08-25T12:10:58.931Z,101458.00
2022-08-25T12:13:47.679Z,101457.53
2022-08-25T12:16:43.646Z,101455.13
2022-08-25T12:19:42.710Z,101441.03
2022-08-25T12:22:09.164Z,101448.09
2022-08-25T12:24:48.742Z,101449.91
2022-08-25T12:27:18.306Z,101454.59
2022-08-25T12:29:50.831Z,101440.28
2022-08-25T12:32:50.232Z,101446.72
2022-08-25T12:35:24.926Z,101439.84
2022-08-25T12:38:31.866Z,101447.03
2022-08-25T12:41:06.850Z,101454.41
2022-08-25T12:43:37.830Z,101445.66
2022-08-25T12:46:19.812Z,101450.13
2022-08-25T12:49:00.414Z,101452.81
2022-08-25T12:51:32.924Z,101447.19
2022-08-25T12:54:42.033Z,101438.22
2022-08-25T12:57:34.051Z,101437.00
2022-08-25T13:00:12.872Z,101427.06
2022-08-25T13:03:05.921Z,101437.78
2022-08-25T13:05:51.460Z,101429.72
2022-08-25T13:08:48.335Z,101426.69
2022-08-25T13:11:27.779Z,101423.44
2022-08-25T13:14:12.753Z,101423.06
2022-08-25T13:16:39.453Z,101430.22
2022-08-25T13:19:06.761Z,101417.75
2022-08-25T13:21:39.080Z,101418.09
2022-08-25T13:24:19.506Z,101412.75
2022-08-25T13:26:50.828Z,101414.31
2022-08-25T13:29:49.051Z,101410.50
2022-08-25T13:32:24.710Z,101407.81
2022-08-25T13:35:19.677Z,101416.47
2022-08-25T13:37:47.154Z,101402.34
2022-08-25T13:40:24.784Z,101406.06
2022-08-25T13:42:59.839Z,101403.41
2022-08-25T13:45:41.884Z,101396.47
2022-08-25T13:48:22.388Z,101399.59
2022-08-25T13:50:51.759Z,101392.91
2022-08-25T13:53:25.609Z,101400.09
2022-08-25T13:55:53.617Z,101393.84
2022-08-25T13:58:45.603Z,101401.59
2022-08-25T14:01:47.605Z,101389.69
2022-08-25T14:04:26.016Z,101393.34
2022-08-25T14:07:33.827Z,101383.78
2022-08-25T14:10:06.683Z,101378.50
2022-08-25T14:12:36.250Z,101381.88
2022-08-25T14:15:06.688Z,101379.59
2022-08-25T14:17:38.737Z,101374.84
2022-08-25T14:20:17.138Z,101380.25
2022-08-25T14:22:43.736Z,101372.91
2022-08-25T14:25:11.278Z,101375.19
2022-08-25T14:27:56.866Z,101370.50
2022-08-25T14:30:29.747Z,101379.81
2022-08-25T14:32:57.177Z,101369.38
2022-08-25T14:35:23.778Z,101356.88
2022-08-25T14:37:50.548Z,101369.75
2022-08-25T14:40:19.955Z,101361.41
2022-08-25T14:42:47.830Z,101366.66
2022-08-25T14:45:16.231Z,101364.09
2022-08-25T14:47:43.924Z,101357.56
2022-08-25T14:50:16.998Z,101360.31
2022-08-25T14:52:46.757Z,101353.03
2022-08-25T14:55:13.325Z,101351.34
2022-08-25T14:57:54.220Z,101354.38
2022-08-25T15:00:21.069Z,101347.47
2022-08-25T15:02:53.103Z,101351.81
2022-08-25T15:05:28.883Z,101338.59
2022-08-25T15:08:15.969Z,101343.94
2022-08-25T15:10:43.472Z,101347.88
2022-08-25T15:13:10.907Z,101351.75
2022-08-25T15:15:52.130Z,101352.47
2022-08-25T15:18:20.350Z,101349.91
2022-08-25T15:20:47.433Z,101360.31
2022-08-25T15:23:20.444Z,101341.97
2022-08-25T15:25:49.223Z,101351.03
2022-08-25T15:28:21.933Z,101349.78
2022-08-25T15:30:48.939Z,101339.19
2022-08-25T15:33:15.703Z,101347.81
2022-08-25T15:35:42.334Z,101346.28
2022-08-25T15:38:11.013Z,101336.38
2022-08-25T15:40:39.523Z,101343.38
2022-08-25T15:43:06.388Z,101345.56
2022-08-25T15:45:35.958Z,101337.50
2022-08-25T15:48:04.434Z,101348.31
2022-08-25T15:50:35.962Z,101341.84
2022-08-25T15:53:02.728Z,101355.34
2022-08-25T15:55:29.411Z,101352.09
2022-08-25T15:57:55.998Z,101334.84
2022-08-25T16:00:23.173Z,101324.28
2022-08-25T16:02:49.823Z,101344.63
2022-08-25T16:05:16.752Z,101340.03
2022-08-25T16:07:45.942Z,101341.63
2022-08-25T16:10:13.628Z,101346.09
2022-08-25T16:12:40.363Z,101339.50
2022-08-25T16:15:09.886Z,101339.47
2022-08-25T16:17:40.743Z,101329.19
2022-08-25T16:20:14.008Z,101339.72
2022-08-25T16:22:41.259Z,101346.09
2022-08-25T16:25:08.827Z,101347.94
2022-08-25T16:27:38.573Z,101342.50
2022-08-25T16:30:07.186Z,101346.53
2022-08-25T16:32:34.735Z,101348.66
2022-08-25T16:35:02.583Z,101345.97
2022-08-25T16:37:29.993Z,101336.03
2022-08-25T16:39:57.497Z,101339.84
2022-08-25T16:42:24.315Z,101346.63
2022-08-25T16:44:53.899Z,101345.19
2022-08-25T16:47:25.106Z,101350.34
2022-08-25T16:49:53.753Z,101343.91
2022-08-25T16:52:39.155Z,101347.81
2022-08-25T16:55:14.379Z,101350.22
2022-08-25T16:57:47.407Z,101350.16
2022-08-25T17:00:17.798Z,101356.44
2022-08-25T17:02:45.782Z,101342.78
2022-08-25T17:05:12.484Z,101348.44
2022-08-25T17:07:39.292Z,101357.06
2022-08-25T17:10:07.423Z,101352.16
2022-08-25T17:12:39.593Z,101356.31
2022-08-25T17:15:07.450Z,101351.25
2022-08-25T17:17:36.296Z,101361.78
2022-08-25T17:20:04.814Z,101367.16
2022-08-25T17:22:31.718Z,101363.84
2022-08-25T17:24:59.425Z,101367.44
2022-08-25T17:27:27.989Z,101362.59
2022-08-25T17:29:55.257Z,101363.59
2022-08-25T17:32:28.961Z,101366.34
2022-08-25T17:34:57.560Z,101361.00
2022-08-25T17:37:24.521Z,101357.75
2022-08-25T17:39:57.437Z,101363.19
2022-08-25T17:42:30.288Z,101364.09
2022-08-25T17:44:57.112Z,101362.78
2022-08-25T17:47:23.832Z,101369.53
2022-08-25T17:49:50.424Z,101372.47
2022-08-25T17:52:17.202Z,101368.38
2022-08-25T17:54:43.824Z,101355.97
2022-08-25T17:57:10.938Z,101362.25
2022-08-25T17:59:40.468Z,101355.59
2022-08-25T18:02:07.572Z,101359.53
2022-08-25T18:04:34.076Z,101350.44
2022-08-25T18:07:00.755Z,101371.50
2022-08-25T18:09:27.255Z,101375.31
2022-08-25T18:11:53.754Z,101377.75
2022-08-25T18:14:25.270Z,101391.75
2022-08-25T18:16:55.158Z,101388.25
2022-08-25T18:19:21.672Z,101389.09
2022-08-25T18:21:49.035Z,101382.34
2022-08-25T18:24:16.631Z,101396.38
2022-08-25T18:26:43.226Z,101388.03
2022-08-25T18:29:13.019Z,101389.56
2022-08-25T18:31:41.735Z,101382.53
2022-08-25T18:34:11.186Z,101392.41
2022-08-25T18:36:38.548Z,101398.09
2022-08-25T18:39:24.895Z,101396.69
2022-08-25T18:41:51.746Z,101399.47
2022-08-25T18:44:18.426Z,101399.50
2022-08-25T18:46:45.432Z,101407.59
2022-08-25T18:49:15.843Z,101417.34
2022-08-25T18:51:44.360Z,101412.69
2022-08-25T18:54:23.353Z,101425.22
2022-08-25T18:56:50.346Z,101430.41
2022-08-25T18:59:19.605Z,101431.75
2022-08-25T19:01:46.460Z,101442.88
2022-08-25T19:04:15.046Z,101433.22
2022-08-25T19:06:43.929Z,101446.69
2022-08-25T19:09:11.331Z,101443.38
2022-08-25T19:11:38.149Z,101438.47
2022-08-25T19:14:12.206Z,101456.06
2022-08-25T19:16:42.585Z,101450.88
2022-08-25T19:19:13.106Z,101458.69
2022-08-25T19:21:41.168Z,101462.69
2022-08-25T19:24:10.166Z,101470.75
2022-08-25T19:26:37.292Z,101469.19
2022-08-25T19:29:09.442Z,101475.78
2022-08-25T19:31:37.124Z,101472.84
2022-08-25T19:34:07.431Z,101481.38
2022-08-25T19:36:34.199Z,101476.03
2022-08-25T19:39:01.982Z,101461.38
2022-08-25T19:41:31.235Z,101469.13
2022-08-25T19:43:59.423Z,101476.16
2022-08-25T19:46:35.632Z,101474.78
2022-08-25T19:49:26.368Z,101487.13
2022-08-25T19:51:55.301Z,101481.09
2022-08-25T19:54:36.995Z,101481.94
2022-08-25T19:57:09.129Z,101498.84
2022-08-25T19:59:43.236Z,101496.50
2022-08-25T20:02:24.979Z,101496.88
2022-08-25T20:04:56.239Z,101511.81
2022-08-25T20:07:25.624Z,101499.88
2022-08-25T20:09:54.322Z,101519.13
2022-08-25T20:12:23.202Z,101510.41
2022-08-25T20:14:51.097Z,101513.88
2022-08-25T20:17:23.971Z,101519.22
2022-08-25T20:19:58.416Z,101525.66
2022-08-25T20:22:30.329Z,101524.81
2022-08-25T20:25:01.149Z,101511.97
2022-08-25T20:27:35.353Z,101518.16
2022-08-25T20:30:06.192Z,101519.19
2022-08-25T20:32:33.581Z,101528.09
2022-08-25T20:35:01.425Z,101532.59
2022-08-25T20:37:28.381Z,101525.53
2022-08-25T20:39:55.188Z,101533.47
2022-08-25T20:42:21.896Z,101541.19
2022-08-25T20:44:48.472Z,101536.19
2022-08-25T20:47:15.554Z,101526.66
2022-08-25T20:49:44.905Z,101549.22
2022-08-25T20:52:12.020Z,101545.66
2022-08-25T20:54:40.324Z,101550.28
2022-08-25T20:57:07.934Z,101546.19
2022-08-25T20:59:34.719Z,101542.31
2022-08-25T21:02:01.606Z,101552.06
2022-08-25T21:04:32.125Z,101559.34
2022-08-25T21:07:01.979Z,101555.88
2022-08-25T21:09:29.456Z,101553.31
2022-08-25T21:11:57.484Z,101552.63
2022-08-25T21:14:25.505Z,101563.16
2022-08-25T21:16:54.385Z,101557.09
2022-08-25T21:19:26.695Z,101552.66
2022-08-25T21:21:59.467Z,101562.56
2022-08-25T21:24:27.980Z,101557.34
2022-08-25T21:26:57.165Z,101553.03
2022-08-25T21:29:28.698Z,101573.09
2022-08-25T21:31:56.566Z,101566.28
2022-08-25T21:34:23.127Z,101564.66
2022-08-25T21:36:49.928Z,101562.88
2022-08-25T21:39:16.527Z,101574.22
2022-08-25T21:41:45.442Z,101566.34
2022-08-25T21:44:13.103Z,101573.56
2022-08-25T21:46:41.368Z,101571.81
2022-08-25T21:49:08.458Z,101567.41
2022-08-25T21:51:40.757Z,101549.13
2022-08-25T21:54:11.039Z,101569.22
2022-08-25T21:56:42.854Z,101579.72
2022-08-25T21:59:12.768Z,101586.59
2022-08-25T22:01:39.757Z,101582.31
2022-08-25T22:04:07.666Z,101586.50
2022-08-25T22:06:35.912Z,101583.03
2022-08-25T22:09:05.296Z,101576.97
2022-08-25T22:11:33.921Z,101581.47
2022-08-25T22:14:03.835Z,101579.00
2022-08-25T22:16:33.154Z,101578.16
2022-08-25T22:19:00.592Z,101581.56
2022-08-25T22:21:27.967Z,101575.53
2022-08-25T22:23:56.039Z,101575.66
2022-08-25T22:26:24.086Z,101575.66
2022-08-25T22:28:53.993Z,101582.44
2022-08-25T22:31:21.194Z,101573.00
2022-08-25T22:33:48.725Z,101578.28
2022-08-25T22:36:16.133Z,101575.72
2022-08-25T22:38:43.575Z,101576.72
2022-08-25T22:41:11.556Z,101580.13
2022-08-25T22:43:51.199Z,101589.09
2022-08-25T22:46:20.851Z,101584.75
2022-08-25T22:48:47.473Z,101587.47
2022-08-25T22:51:19.925Z,101586.50
2022-08-25T22:53:47.731Z,101589.09
2022-08-25T22:56:17.103Z,101588.19
2022-08-25T22:58:51.504Z,101602.22
2022-08-25T23:01:19.857Z,101603.94
2022-08-25T23:03:47.534Z,101604.03
2022-08-25T23:06:24.829Z,101601.47
2022-08-25T23:08:53.775Z,101612.72
2022-08-25T23:11:21.923Z,101608.44
2022-08-25T23:13:49.146Z,101592.91
2022-08-25T23:16:17.620Z,101610.97
2022-08-25T23:18:47.165Z,101600.53
2022-08-25T23:21:37.864Z,101603.88
2022-08-25T23:24:08.788Z,101606.53
2022-08-25T23:26:37.748Z,101602.34
2022-08-25T23:29:18.460Z,101613.69
2022-08-25T23:31:47.523Z,101618.09
2022-08-25T23:34:15.532Z,101601.59
2022-08-25T23:36:43.339Z,101601.66
2022-08-25T23:39:11.238Z,101605.09
2022-08-25T23:41:40.805Z,101610.13
2022-08-25T23:44:11.609Z,101606.03
2022-08-25T23:46:39.380Z,101609.50
2022-08-25T23:49:08.467Z,101605.78
2022-08-25T23:51:37.999Z,101608.69
2022-08-25T23:54:07.118Z,101614.81
2022-08-25T23:56:37.384Z,101610.44
2022-08-25T23:59:10.889Z,101616.56
